sensor_id;sensor_type;location;lat;lon;timestamp;P1;durP1;ratioP1;P2;durP2;ratioP2
6955;SDS011;50345;51.136;16.886;2022-11-24T00:00:48;141.80;;;67.18;;
6955;SDS011;50345;51.136;16.886;2022-11-24T00:03:14;137.48;;;67.35;;
6955;SDS011;50345;51.136;16.886;2022-11-24T00:05:40;142.07;;;72.38;;
6955;SDS011;50345;51.136;16.886;2022-11-24T00:08:06;111.80;;;60.30;;
6955;SDS011;50345;51.136;16.886;2022-11-24T00:10:32;98.38;;;57.38;;
6955;SDS011;50345;51.136;16.886;2022-11-24T00:12:58;130.10;;;65.38;;
6955;SDS011;50345;51.136;16.886;2022-11-24T00:15:24;101.57;;;57.35;;
6955;SDS011;50345;51.136;16.886;2022-11-24T00:17:50;78.15;;;48.78;;
6955;SDS011;50345;51.136;16.886;2022-11-24T00:20:17;80.47;;;48.40;;
6955;SDS011;50345;51.136;16.886;2022-11-24T00:22:43;84.55;;;54.30;;
6955;SDS011;50345;51.136;16.886;2022-11-24T00:25:09;86.00;;;49.40;;
6955;SDS011;50345;51.136;16.886;2022-11-24T00:27:35;87.05;;;52.97;;
6955;SDS011;50345;51.136;16.886;2022-11-24T00:30:01;92.10;;;55.30;;
6955;SDS011;50345;51.136;16.886;2022-11-24T00:32:28;79.90;;;47.75;;
6955;SDS011;50345;51.136;16.886;2022-11-24T00:34:54;74.68;;;50.72;;
6955;SDS011;50345;51.136;16.886;2022-11-24T00:37:20;80.88;;;51.65;;
6955;SDS011;50345;51.136;16.886;2022-11-24T00:39:46;82.97;;;54.38;;
6955;SDS011;50345;51.136;16.886;2022-11-24T00:42:12;88.68;;;56.17;;
6955;SDS011;50345;51.136;16.886;2022-11-24T00:44:39;89.25;;;53.90;;
6955;SDS011;50345;51.136;16.886;2022-11-24T00:47:05;86.80;;;53.90;;
6955;SDS011;50345;51.136;16.886;2022-11-24T00:49:31;90.72;;;53.58;;
6955;SDS011;50345;51.136;16.886;2022-11-24T00:51:57;90.78;;;50.88;;
6955;SDS011;50345;51.136;16.886;2022-11-24T00:54:23;77.63;;;47.65;;
6955;SDS011;50345;51.136;16.886;2022-11-24T00:56:49;67.97;;;43.53;;
6955;SDS011;50345;51.136;16.886;2022-11-24T00:59:15;64.82;;;43.90;;
6955;SDS011;50345;51.136;16.886;2022-11-24T01:01:42;72.82;;;50.42;;
6955;SDS011;50345;51.136;16.886;2022-11-24T01:04:08;76.75;;;48.15;;
6955;SDS011;50345;51.136;16.886;2022-11-24T01:06:34;78.65;;;48.10;;
6955;SDS011;50345;51.136;16.886;2022-11-24T01:09:01;82.25;;;50.67;;
6955;SDS011;50345;51.136;16.886;2022-11-24T01:11:28;92.72;;;52.28;;
6955;SDS011;50345;51.136;16.886;2022-11-24T01:14:15;84.28;;;52.28;;
6955;SDS011;50345;51.136;16.886;2022-11-24T01:16:41;98.85;;;57.50;;
6955;SDS011;50345;51.136;16.886;2022-11-24T01:19:07;92.55;;;55.45;;
6955;SDS011;50345;51.136;16.886;2022-11-24T01:21:33;96.45;;;54.00;;
6955;SDS011;50345;51.136;16.886;2022-11-24T01:23:59;92.55;;;53.72;;
6955;SDS011;50345;51.136;16.886;2022-11-24T01:26:25;90.53;;;50.70;;
6955;SDS011;50345;51.136;16.886;2022-11-24T01:28:52;96.15;;;53.08;;
6955;SDS011;50345;51.136;16.886;2022-11-24T01:31:19;86.38;;;53.92;;
6955;SDS011;50345;51.136;16.886;2022-11-24T01:33:45;90.22;;;51.42;;
6955;SDS011;50345;51.136;16.886;2022-11-24T01:36:11;84.97;;;49.95;;
6955;SDS011;50345;51.136;16.886;2022-11-24T01:38:37;71.15;;;50.03;;
6955;SDS011;50345;51.136;16.886;2022-11-24T01:41:05;79.25;;;50.67;;
6955;SDS011;50345;51.136;16.886;2022-11-24T01:43:31;73.22;;;49.78;;
6955;SDS011;50345;51.136;16.886;2022-11-24T01:46:00;73.57;;;46.17;;
6955;SDS011;50345;51.136;16.886;2022-11-24T01:48:35;73.40;;;45.33;;
6955;SDS011;50345;51.136;16.886;2022-11-24T01:51:07;77.00;;;46.20;;
6955;SDS011;50345;51.136;16.886;2022-11-24T01:53:34;68.88;;;45.67;;
6955;SDS011;50345;51.136;16.886;2022-11-24T01:56:01;68.88;;;44.55;;
6955;SDS011;50345;51.136;16.886;2022-11-24T01:58:28;70.70;;;45.58;;
6955;SDS011;50345;51.136;16.886;2022-11-24T02:00:55;69.70;;;46.47;;
6955;SDS011;50345;51.136;16.886;2022-11-24T02:03:23;72.50;;;48.13;;
6955;SDS011;50345;51.136;16.886;2022-11-24T02:05:58;68.53;;;43.05;;
6955;SDS011;50345;51.136;16.886;2022-11-24T02:08:29;70.55;;;46.80;;
6955;SDS011;50345;51.136;16.886;2022-11-24T02:10:58;76.40;;;47.47;;
6955;SDS011;50345;51.136;16.886;2022-11-24T02:13:25;73.43;;;45.17;;
6955;SDS011;50345;51.136;16.886;2022-11-24T02:15:52;76.43;;;49.13;;
6955;SDS011;50345;51.136;16.886;2022-11-24T02:18:18;75.82;;;47.35;;
6955;SDS011;50345;51.136;16.886;2022-11-24T02:20:44;78.20;;;48.35;;
6955;SDS011;50345;51.136;16.886;2022-11-24T02:23:15;72.90;;;47.78;;
6955;SDS011;50345;51.136;16.886;2022-11-24T02:28:14;70.05;;;45.50;;
6955;SDS011;50345;51.136;16.886;2022-11-24T02:30:41;73.95;;;45.90;;
6955;SDS011;50345;51.136;16.886;2022-11-24T02:33:08;74.68;;;46.75;;
6955;SDS011;50345;51.136;16.886;2022-11-24T02:35:34;75.60;;;47.78;;
6955;SDS011;50345;51.136;16.886;2022-11-24T02:38:00;75.13;;;48.13;;
6955;SDS011;50345;51.136;16.886;2022-11-24T02:40:27;71.22;;;47.80;;
6955;SDS011;50345;51.136;16.886;2022-11-24T02:43:03;75.13;;;49.05;;
6955;SDS011;50345;51.136;16.886;2022-11-24T02:45:29;79.78;;;46.55;;
6955;SDS011;50345;51.136;16.886;2022-11-24T02:47:56;71.45;;;46.95;;
6955;SDS011;50345;51.136;16.886;2022-11-24T02:50:22;69.22;;;44.55;;
6955;SDS011;50345;51.136;16.886;2022-11-24T02:52:48;64.85;;;41.70;;
6955;SDS011;50345;51.136;16.886;2022-11-24T02:55:14;68.32;;;42.80;;
6955;SDS011;50345;51.136;16.886;2022-11-24T02:57:41;63.35;;;39.78;;
6955;SDS011;50345;51.136;16.886;2022-11-24T03:00:07;54.47;;;39.20;;
6955;SDS011;50345;51.136;16.886;2022-11-24T03:02:33;64.07;;;39.83;;
6955;SDS011;50345;51.136;16.886;2022-11-24T03:04:59;68.55;;;38.55;;
6955;SDS011;50345;51.136;16.886;2022-11-24T03:07:26;58.80;;;40.05;;
6955;SDS011;50345;51.136;16.886;2022-11-24T03:09:52;65.75;;;43.33;;
6955;SDS011;50345;51.136;16.886;2022-11-24T03:12:19;64.38;;;44.22;;
6955;SDS011;50345;51.136;16.886;2022-11-24T03:14:45;71.80;;;42.17;;
6955;SDS011;50345;51.136;16.886;2022-11-24T03:17:11;59.85;;;40.67;;
6955;SDS011;50345;51.136;16.886;2022-11-24T03:19:37;60.17;;;39.85;;
6955;SDS011;50345;51.136;16.886;2022-11-24T03:22:03;59.88;;;39.88;;
6955;SDS011;50345;51.136;16.886;2022-11-24T03:24:29;63.90;;;42.45;;
6955;SDS011;50345;51.136;16.886;2022-11-24T03:26:55;63.80;;;41.33;;
6955;SDS011;50345;51.136;16.886;2022-11-24T03:29:21;58.35;;;40.35;;
6955;SDS011;50345;51.136;16.886;2022-11-24T03:31:47;63.72;;;40.83;;
6955;SDS011;50345;51.136;16.886;2022-11-24T03:34:14;66.28;;;42.10;;
6955;SDS011;50345;51.136;16.886;2022-11-24T03:36:40;67.53;;;42.13;;
6955;SDS011;50345;51.136;16.886;2022-11-24T03:39:06;61.15;;;40.10;;
6955;SDS011;50345;51.136;16.886;2022-11-24T03:41:32;64.20;;;39.38;;
6955;SDS011;50345;51.136;16.886;2022-11-24T03:43:58;55.65;;;39.67;;
6955;SDS011;50345;51.136;16.886;2022-11-24T03:46:24;61.08;;;39.53;;
6955;SDS011;50345;51.136;16.886;2022-11-24T03:48:51;65.50;;;40.25;;
6955;SDS011;50345;51.136;16.886;2022-11-24T03:51:17;67.97;;;42.42;;
6955;SDS011;50345;51.136;16.886;2022-11-24T03:53:43;61.83;;;40.88;;
6955;SDS011;50345;51.136;16.886;2022-11-24T03:56:09;63.95;;;40.45;;
6955;SDS011;50345;51.136;16.886;2022-11-24T03:58:35;68.22;;;38.78;;
6955;SDS011;50345;51.136;16.886;2022-11-24T04:01:01;64.05;;;40.33;;
6955;SDS011;50345;51.136;16.886;2022-11-24T04:03:27;57.03;;;38.65;;
6955;SDS011;50345;51.136;16.886;2022-11-24T04:05:53;65.45;;;38.83;;
6955;SDS011;50345;51.136;16.886;2022-11-24T04:08:20;60.17;;;41.10;;
6955;SDS011;50345;51.136;16.886;2022-11-24T04:10:50;65.45;;;42.88;;
6955;SDS011;50345;51.136;16.886;2022-11-24T04:13:17;61.33;;;39.97;;
6955;SDS011;50345;51.136;16.886;2022-11-24T04:15:43;60.58;;;41.05;;
6955;SDS011;50345;51.136;16.886;2022-11-24T04:18:10;65.85;;;41.20;;
6955;SDS011;50345;51.136;16.886;2022-11-24T04:20:36;57.75;;;40.97;;
6955;SDS011;50345;51.136;16.886;2022-11-24T04:23:03;64.18;;;41.90;;
6955;SDS011;50345;51.136;16.886;2022-11-24T04:25:29;63.25;;;41.63;;
6955;SDS011;50345;51.136;16.886;2022-11-24T04:27:55;64.93;;;41.17;;
6955;SDS011;50345;51.136;16.886;2022-11-24T04:30:22;63.42;;;43.00;;
6955;SDS011;50345;51.136;16.886;2022-11-24T04:32:48;65.88;;;45.30;;
6955;SDS011;50345;51.136;16.886;2022-11-24T04:35:14;65.95;;;44.50;;
6955;SDS011;50345;51.136;16.886;2022-11-24T04:37:40;92.93;;;58.00;;
6955;SDS011;50345;51.136;16.886;2022-11-24T04:40:07;85.65;;;54.28;;
6955;SDS011;50345;51.136;16.886;2022-11-24T04:42:33;75.72;;;47.25;;
6955;SDS011;50345;51.136;16.886;2022-11-24T04:44:59;76.80;;;49.58;;
6955;SDS011;50345;51.136;16.886;2022-11-24T04:47:26;68.18;;;48.65;;
6955;SDS011;50345;51.136;16.886;2022-11-24T04:49:52;71.60;;;46.95;;
6955;SDS011;50345;51.136;16.886;2022-11-24T04:52:19;64.88;;;39.85;;
6955;SDS011;50345;51.136;16.886;2022-11-24T04:54:45;62.55;;;40.58;;
6955;SDS011;50345;51.136;16.886;2022-11-24T04:57:16;59.40;;;39.85;;
6955;SDS011;50345;51.136;16.886;2022-11-24T04:59:42;56.20;;;38.05;;
6955;SDS011;50345;51.136;16.886;2022-11-24T05:02:08;54.95;;;39.90;;
6955;SDS011;50345;51.136;16.886;2022-11-24T05:04:35;54.70;;;38.92;;
6955;SDS011;50345;51.136;16.886;2022-11-24T05:07:01;68.55;;;41.17;;
6955;SDS011;50345;51.136;16.886;2022-11-24T05:09:27;57.85;;;40.22;;
6955;SDS011;50345;51.136;16.886;2022-11-24T05:11:53;65.35;;;40.88;;
6955;SDS011;50345;51.136;16.886;2022-11-24T05:14:19;58.17;;;40.50;;
6955;SDS011;50345;51.136;16.886;2022-11-24T05:16:46;72.05;;;45.35;;
6955;SDS011;50345;51.136;16.886;2022-11-24T05:19:13;72.20;;;42.78;;
6955;SDS011;50345;51.136;16.886;2022-11-24T05:21:39;65.18;;;44.28;;
6955;SDS011;50345;51.136;16.886;2022-11-24T05:24:05;73.10;;;43.17;;
6955;SDS011;50345;51.136;16.886;2022-11-24T05:26:31;73.43;;;42.95;;
6955;SDS011;50345;51.136;16.886;2022-11-24T05:28:59;75.45;;;44.10;;
6955;SDS011;50345;51.136;16.886;2022-11-24T05:31:25;69.80;;;44.15;;
6955;SDS011;50345;51.136;16.886;2022-11-24T05:33:51;62.40;;;43.13;;
6955;SDS011;50345;51.136;16.886;2022-11-24T05:36:17;58.67;;;40.75;;
6955;SDS011;50345;51.136;16.886;2022-11-24T05:39:02;65.60;;;42.13;;
6955;SDS011;50345;51.136;16.886;2022-11-24T05:41:28;64.75;;;40.75;;
6955;SDS011;50345;51.136;16.886;2022-11-24T05:43:54;89.90;;;51.63;;
6955;SDS011;50345;51.136;16.886;2022-11-24T05:46:20;73.75;;;42.28;;
6955;SDS011;50345;51.136;16.886;2022-11-24T05:48:46;61.58;;;42.25;;
6955;SDS011;50345;51.136;16.886;2022-11-24T05:51:12;59.83;;;40.67;;
6955;SDS011;50345;51.136;16.886;2022-11-24T05:53:39;68.43;;;41.70;;
6955;SDS011;50345;51.136;16.886;2022-11-24T05:56:05;65.32;;;42.30;;
6955;SDS011;50345;51.136;16.886;2022-11-24T05:58:31;69.57;;;41.95;;
6955;SDS011;50345;51.136;16.886;2022-11-24T06:00:57;61.33;;;40.47;;
6955;SDS011;50345;51.136;16.886;2022-11-24T06:03:23;67.32;;;45.38;;
6955;SDS011;50345;51.136;16.886;2022-11-24T06:05:49;69.88;;;45.92;;
6955;SDS011;50345;51.136;16.886;2022-11-24T06:08:15;64.82;;;43.55;;
6955;SDS011;50345;51.136;16.886;2022-11-24T06:10:41;63.10;;;40.05;;
6955;SDS011;50345;51.136;16.886;2022-11-24T06:13:07;61.33;;;43.17;;
6955;SDS011;50345;51.136;16.886;2022-11-24T06:15:33;63.47;;;42.95;;
6955;SDS011;50345;51.136;16.886;2022-11-24T06:18:01;64.35;;;43.75;;
6955;SDS011;50345;51.136;16.886;2022-11-24T06:20:27;65.78;;;45.00;;
6955;SDS011;50345;51.136;16.886;2022-11-24T06:22:56;68.93;;;44.83;;
6955;SDS011;50345;51.136;16.886;2022-11-24T06:25:22;67.38;;;42.78;;
6955;SDS011;50345;51.136;16.886;2022-11-24T06:27:48;66.57;;;42.35;;
6955;SDS011;50345;51.136;16.886;2022-11-24T06:30:14;72.55;;;48.63;;
6955;SDS011;50345;51.136;16.886;2022-11-24T06:32:40;73.20;;;45.63;;
6955;SDS011;50345;51.136;16.886;2022-11-24T06:35:09;70.78;;;44.80;;
6955;SDS011;50345;51.136;16.886;2022-11-24T06:37:35;72.47;;;42.58;;
6955;SDS011;50345;51.136;16.886;2022-11-24T06:40:02;80.40;;;48.65;;
6955;SDS011;50345;51.136;16.886;2022-11-24T06:42:28;64.28;;;42.10;;
6955;SDS011;50345;51.136;16.886;2022-11-24T06:44:54;70.63;;;45.30;;
6955;SDS011;50345;51.136;16.886;2022-11-24T06:47:20;69.72;;;43.53;;
6955;SDS011;50345;51.136;16.886;2022-11-24T06:49:46;70.85;;;45.83;;
6955;SDS011;50345;51.136;16.886;2022-11-24T06:52:12;70.95;;;46.78;;
6955;SDS011;50345;51.136;16.886;2022-11-24T06:54:38;82.07;;;51.33;;
6955;SDS011;50345;51.136;16.886;2022-11-24T06:57:04;75.57;;;48.53;;
6955;SDS011;50345;51.136;16.886;2022-11-24T06:59:30;76.18;;;50.67;;
6955;SDS011;50345;51.136;16.886;2022-11-24T07:01:56;77.13;;;48.60;;
6955;SDS011;50345;51.136;16.886;2022-11-24T07:04:22;81.68;;;48.10;;
6955;SDS011;50345;51.136;16.886;2022-11-24T07:06:48;76.35;;;49.42;;
6955;SDS011;50345;51.136;16.886;2022-11-24T07:09:14;85.47;;;53.65;;
6955;SDS011;50345;51.136;16.886;2022-11-24T07:11:40;82.35;;;50.42;;
6955;SDS011;50345;51.136;16.886;2022-11-24T07:14:07;73.65;;;48.58;;
6955;SDS011;50345;51.136;16.886;2022-11-24T07:16:33;87.60;;;50.33;;
6955;SDS011;50345;51.136;16.886;2022-11-24T07:18:59;77.70;;;48.22;;
6955;SDS011;50345;51.136;16.886;2022-11-24T07:21:25;78.95;;;49.35;;
6955;SDS011;50345;51.136;16.886;2022-11-24T07:23:52;82.13;;;48.95;;
6955;SDS011;50345;51.136;16.886;2022-11-24T07:26:19;78.43;;;50.15;;
6955;SDS011;50345;51.136;16.886;2022-11-24T07:28:45;82.35;;;48.42;;
6955;SDS011;50345;51.136;16.886;2022-11-24T07:31:12;75.97;;;46.67;;
6955;SDS011;50345;51.136;16.886;2022-11-24T07:33:38;80.80;;;49.00;;
6955;SDS011;50345;51.136;16.886;2022-11-24T07:36:05;84.93;;;51.95;;
6955;SDS011;50345;51.136;16.886;2022-11-24T07:38:32;78.78;;;53.38;;
6955;SDS011;50345;51.136;16.886;2022-11-24T07:41:01;91.10;;;54.30;;
6955;SDS011;50345;51.136;16.886;2022-11-24T07:43:29;86.85;;;52.78;;
6955;SDS011;50345;51.136;16.886;2022-11-24T07:45:55;92.35;;;58.15;;
6955;SDS011;50345;51.136;16.886;2022-11-24T07:48:21;93.68;;;61.97;;
6955;SDS011;50345;51.136;16.886;2022-11-24T07:50:48;107.07;;;61.85;;
6955;SDS011;50345;51.136;16.886;2022-11-24T07:53:14;96.53;;;61.38;;
6955;SDS011;50345;51.136;16.886;2022-11-24T07:55:40;106.07;;;63.35;;
6955;SDS011;50345;51.136;16.886;2022-11-24T07:58:06;105.90;;;64.38;;
6955;SDS011;50345;51.136;16.886;2022-11-24T08:00:32;94.95;;;60.22;;
6955;SDS011;50345;51.136;16.886;2022-11-24T08:02:58;95.30;;;60.13;;
6955;SDS011;50345;51.136;16.886;2022-11-24T08:05:24;89.68;;;56.30;;
6955;SDS011;50345;51.136;16.886;2022-11-24T08:07:50;88.95;;;54.65;;
6955;SDS011;50345;51.136;16.886;2022-11-24T08:10:16;89.97;;;59.65;;
6955;SDS011;50345;51.136;16.886;2022-11-24T08:12:42;94.28;;;58.50;;
6955;SDS011;50345;51.136;16.886;2022-11-24T08:15:08;91.78;;;61.50;;
6955;SDS011;50345;51.136;16.886;2022-11-24T08:17:34;98.05;;;58.28;;
6955;SDS011;50345;51.136;16.886;2022-11-24T08:20:00;82.57;;;52.90;;
6955;SDS011;50345;51.136;16.886;2022-11-24T08:22:26;80.18;;;52.70;;
6955;SDS011;50345;51.136;16.886;2022-11-24T08:24:52;85.65;;;50.78;;
6955;SDS011;50345;51.136;16.886;2022-11-24T08:27:18;84.32;;;55.20;;
6955;SDS011;50345;51.136;16.886;2022-11-24T08:29:44;88.63;;;55.20;;
6955;SDS011;50345;51.136;16.886;2022-11-24T08:32:11;80.35;;;52.03;;
6955;SDS011;50345;51.136;16.886;2022-11-24T08:34:37;78.25;;;52.65;;
6955;SDS011;50345;51.136;16.886;2022-11-24T08:37:03;73.78;;;48.85;;
6955;SDS011;50345;51.136;16.886;2022-11-24T08:39:30;80.00;;;49.00;;
6955;SDS011;50345;51.136;16.886;2022-11-24T08:41:56;68.70;;;44.63;;
6955;SDS011;50345;51.136;16.886;2022-11-24T08:44:22;63.72;;;45.15;;
6955;SDS011;50345;51.136;16.886;2022-11-24T08:46:48;63.85;;;42.60;;
6955;SDS011;50345;51.136;16.886;2022-11-24T08:49:14;62.72;;;42.90;;
6955;SDS011;50345;51.136;16.886;2022-11-24T08:51:40;73.35;;;41.45;;
6955;SDS011;50345;51.136;16.886;2022-11-24T08:54:07;63.35;;;39.70;;
6955;SDS011;50345;51.136;16.886;2022-11-24T08:56:37;58.67;;;39.95;;
6955;SDS011;50345;51.136;16.886;2022-11-24T08:59:04;54.97;;;37.58;;
6955;SDS011;50345;51.136;16.886;2022-11-24T09:01:30;64.18;;;40.28;;
6955;SDS011;50345;51.136;16.886;2022-11-24T09:03:56;59.08;;;39.08;;
6955;SDS011;50345;51.136;16.886;2022-11-24T09:06:23;66.75;;;42.33;;
6955;SDS011;50345;51.136;16.886;2022-11-24T09:08:50;59.63;;;39.97;;
6955;SDS011;50345;51.136;16.886;2022-11-24T09:11:16;60.10;;;39.65;;
6955;SDS011;50345;51.136;16.886;2022-11-24T09:13:43;61.75;;;39.83;;
6955;SDS011;50345;51.136;16.886;2022-11-24T09:16:10;59.03;;;41.00;;
6955;SDS011;50345;51.136;16.886;2022-11-24T09:18:36;67.82;;;40.15;;
6955;SDS011;50345;51.136;16.886;2022-11-24T09:21:10;62.90;;;41.10;;
6955;SDS011;50345;51.136;16.886;2022-11-24T09:23:37;57.95;;;38.90;;
6955;SDS011;50345;51.136;16.886;2022-11-24T09:26:06;55.58;;;39.85;;
6955;SDS011;50345;51.136;16.886;2022-11-24T09:28:33;58.10;;;40.80;;
6955;SDS011;50345;51.136;16.886;2022-11-24T09:31:00;59.42;;;40.10;;
6955;SDS011;50345;51.136;16.886;2022-11-24T09:33:26;53.15;;;41.25;;
6955;SDS011;50345;51.136;16.886;2022-11-24T09:35:52;59.97;;;42.42;;
6955;SDS011;50345;51.136;16.886;2022-11-24T09:38:18;55.72;;;39.58;;
6955;SDS011;50345;51.136;16.886;2022-11-24T09:40:44;58.17;;;42.97;;
6955;SDS011;50345;51.136;16.886;2022-11-24T09:43:11;58.10;;;37.33;;
6955;SDS011;50345;51.136;16.886;2022-11-24T09:48:25;57.40;;;40.90;;
6955;SDS011;50345;51.136;16.886;2022-11-24T09:50:52;56.88;;;38.47;;
6955;SDS011;50345;51.136;16.886;2022-11-24T09:55:51;56.78;;;38.47;;
6955;SDS011;50345;51.136;16.886;2022-11-24T10:01:04;53.83;;;39.13;;
6955;SDS011;50345;51.136;16.886;2022-11-24T10:03:40;56.83;;;41.35;;
6955;SDS011;50345;51.136;16.886;2022-11-24T10:14:19;61.08;;;42.30;;
6955;SDS011;50345;51.136;16.886;2022-11-24T10:16:52;49.30;;;36.47;;
6955;SDS011;50345;51.136;16.886;2022-11-24T10:19:39;60.60;;;40.88;;
6955;SDS011;50345;51.136;16.886;2022-11-24T10:24:46;49.30;;;38.17;;
6955;SDS011;50345;51.136;16.886;2022-11-24T10:27:17;52.33;;;37.60;;
6955;SDS011;50345;51.136;16.886;2022-11-24T10:29:44;51.05;;;38.53;;
6955;SDS011;50345;51.136;16.886;2022-11-24T10:32:17;51.67;;;36.85;;
6955;SDS011;50345;51.136;16.886;2022-11-24T10:34:44;52.40;;;35.83;;
6955;SDS011;50345;51.136;16.886;2022-11-24T10:42:32;60.72;;;39.70;;
6955;SDS011;50345;51.136;16.886;2022-11-24T10:45:02;56.92;;;39.17;;
6955;SDS011;50345;51.136;16.886;2022-11-24T10:47:29;58.10;;;39.17;;
6955;SDS011;50345;51.136;16.886;2022-11-24T10:49:57;58.08;;;40.97;;
6955;SDS011;50345;51.136;16.886;2022-11-24T10:52:25;59.70;;;40.95;;
6955;SDS011;50345;51.136;16.886;2022-11-24T10:54:56;54.60;;;41.38;;
6955;SDS011;50345;51.136;16.886;2022-11-24T10:57:35;57.85;;;42.33;;
6955;SDS011;50345;51.136;16.886;2022-11-24T11:00:47;60.22;;;41.00;;
6955;SDS011;50345;51.136;16.886;2022-11-24T11:02:48;57.60;;;42.28;;
6955;SDS011;50345;51.136;16.886;2022-11-24T11:10:34;56.40;;;40.10;;
6955;SDS011;50345;51.136;16.886;2022-11-24T11:13:18;66.25;;;42.67;;
6955;SDS011;50345;51.136;16.886;2022-11-24T11:15:44;60.60;;;40.10;;
6955;SDS011;50345;51.136;16.886;2022-11-24T11:18:13;58.08;;;41.63;;
6955;SDS011;50345;51.136;16.886;2022-11-24T11:20:40;56.28;;;42.00;;
6955;SDS011;50345;51.136;16.886;2022-11-24T11:23:14;57.33;;;38.58;;
6955;SDS011;50345;51.136;16.886;2022-11-24T11:25:40;60.60;;;42.03;;
6955;SDS011;50345;51.136;16.886;2022-11-24T11:30:53;50.97;;;38.03;;
6955;SDS011;50345;51.136;16.886;2022-11-24T11:33:22;56.45;;;38.97;;
6955;SDS011;50345;51.136;16.886;2022-11-24T11:35:48;54.08;;;39.97;;
6955;SDS011;50345;51.136;16.886;2022-11-24T11:38:14;57.67;;;38.92;;
6955;SDS011;50345;51.136;16.886;2022-11-24T11:40:40;58.08;;;40.85;;
6955;SDS011;50345;51.136;16.886;2022-11-24T11:45:44;51.03;;;40.33;;
6955;SDS011;50345;51.136;16.886;2022-11-24T11:50:50;57.78;;;37.83;;
6955;SDS011;50345;51.136;16.886;2022-11-24T11:53:23;55.40;;;38.97;;
6955;SDS011;50345;51.136;16.886;2022-11-24T11:56:08;55.65;;;41.15;;
6955;SDS011;50345;51.136;16.886;2022-11-24T12:03:41;55.35;;;40.15;;
6955;SDS011;50345;51.136;16.886;2022-11-24T12:06:18;55.92;;;38.25;;
6955;SDS011;50345;51.136;16.886;2022-11-24T12:09:02;59.67;;;42.13;;
6955;SDS011;50345;51.136;16.886;2022-11-24T12:14:32;66.25;;;47.00;;
6955;SDS011;50345;51.136;16.886;2022-11-24T12:17:13;61.88;;;42.00;;
6955;SDS011;50345;51.136;16.886;2022-11-24T12:19:47;74.53;;;54.75;;
6955;SDS011;50345;51.136;16.886;2022-11-24T12:22:22;51.70;;;38.58;;
6955;SDS011;50345;51.136;16.886;2022-11-24T12:30:03;57.80;;;36.58;;
6955;SDS011;50345;51.136;16.886;2022-11-24T12:32:34;55.33;;;37.55;;
6955;SDS011;50345;51.136;16.886;2022-11-24T12:40:12;66.10;;;44.90;;
6955;SDS011;50345;51.136;16.886;2022-11-24T12:43:02;62.33;;;44.08;;
6955;SDS011;50345;51.136;16.886;2022-11-24T12:45:35;57.55;;;38.78;;
6955;SDS011;50345;51.136;16.886;2022-11-24T12:50:35;64.25;;;45.90;;
6955;SDS011;50345;51.136;16.886;2022-11-24T12:53:02;64.28;;;46.15;;
6955;SDS011;50345;51.136;16.886;2022-11-24T12:55:29;71.22;;;44.75;;
6955;SDS011;50345;51.136;16.886;2022-11-24T13:01:02;72.45;;;46.80;;
6955;SDS011;50345;51.136;16.886;2022-11-24T13:06:12;66.13;;;48.25;;
6955;SDS011;50345;51.136;16.886;2022-11-24T13:08:40;59.58;;;44.92;;
6955;SDS011;50345;51.136;16.886;2022-11-24T13:16:23;62.05;;;41.75;;
6955;SDS011;50345;51.136;16.886;2022-11-24T13:18:57;60.15;;;41.75;;
6955;SDS011;50345;51.136;16.886;2022-11-24T13:24:03;65.13;;;43.28;;
6955;SDS011;50345;51.136;16.886;2022-11-24T13:29:28;60.38;;;40.40;;
6955;SDS011;50345;51.136;16.886;2022-11-24T13:31:54;59.70;;;39.47;;
6955;SDS011;50345;51.136;16.886;2022-11-24T13:34:52;58.72;;;39.95;;
6955;SDS011;50345;51.136;16.886;2022-11-24T13:39:48;53.70;;;38.20;;
6955;SDS011;50345;51.136;16.886;2022-11-24T13:42:15;60.30;;;39.72;;
6955;SDS011;50345;51.136;16.886;2022-11-24T13:44:45;56.08;;;38.28;;
6955;SDS011;50345;51.136;16.886;2022-11-24T13:49:56;56.65;;;41.92;;
6955;SDS011;50345;51.136;16.886;2022-11-24T13:52:41;54.30;;;40.55;;
6955;SDS011;50345;51.136;16.886;2022-11-24T13:57:38;57.65;;;40.35;;
6955;SDS011;50345;51.136;16.886;2022-11-24T14:02:43;61.38;;;38.92;;
6955;SDS011;50345;51.136;16.886;2022-11-24T14:05:13;60.65;;;41.97;;
6955;SDS011;50345;51.136;16.886;2022-11-24T14:07:40;51.58;;;37.83;;
6955;SDS011;50345;51.136;16.886;2022-11-24T14:10:12;53.53;;;37.15;;
6955;SDS011;50345;51.136;16.886;2022-11-24T14:12:38;53.38;;;36.83;;
6955;SDS011;50345;51.136;16.886;2022-11-24T14:15:26;50.72;;;37.05;;
6955;SDS011;50345;51.136;16.886;2022-11-24T14:17:59;54.78;;;37.47;;
6955;SDS011;50345;51.136;16.886;2022-11-24T14:20:25;48.83;;;37.15;;
6955;SDS011;50345;51.136;16.886;2022-11-24T14:22:52;52.33;;;36.67;;
6955;SDS011;50345;51.136;16.886;2022-11-24T14:25:28;51.15;;;35.20;;
6955;SDS011;50345;51.136;16.886;2022-11-24T14:27:55;54.90;;;39.00;;
6955;SDS011;50345;51.136;16.886;2022-11-24T14:30:22;58.38;;;38.50;;
6955;SDS011;50345;51.136;16.886;2022-11-24T14:32:55;56.45;;;38.25;;
6955;SDS011;50345;51.136;16.886;2022-11-24T14:35:22;53.05;;;37.63;;
6955;SDS011;50345;51.136;16.886;2022-11-24T14:37:48;51.72;;;35.80;;
6955;SDS011;50345;51.136;16.886;2022-11-24T14:42:59;57.78;;;37.78;;
6955;SDS011;50345;51.136;16.886;2022-11-24T14:45:25;56.92;;;38.53;;
6955;SDS011;50345;51.136;16.886;2022-11-24T14:47:51;57.60;;;38.13;;
6955;SDS011;50345;51.136;16.886;2022-11-24T14:50:20;55.70;;;37.90;;
6955;SDS011;50345;51.136;16.886;2022-11-24T14:52:53;53.97;;;35.10;;
6955;SDS011;50345;51.136;16.886;2022-11-24T14:55:24;58.70;;;39.70;;
6955;SDS011;50345;51.136;16.886;2022-11-24T14:57:50;50.05;;;36.45;;
6955;SDS011;50345;51.136;16.886;2022-11-24T15:00:18;52.97;;;36.72;;
6955;SDS011;50345;51.136;16.886;2022-11-24T15:02:49;55.97;;;39.00;;
6955;SDS011;50345;51.136;16.886;2022-11-24T15:05:23;56.78;;;37.33;;
6955;SDS011;50345;51.136;16.886;2022-11-24T15:08:02;54.55;;;36.80;;
6955;SDS011;50345;51.136;16.886;2022-11-24T15:10:32;62.15;;;41.47;;
6955;SDS011;50345;51.136;16.886;2022-11-24T15:12:59;60.58;;;39.83;;
6955;SDS011;50345;51.136;16.886;2022-11-24T15:15:30;64.18;;;40.50;;
6955;SDS011;50345;51.136;16.886;2022-11-24T15:17:57;57.05;;;40.63;;
6955;SDS011;50345;51.136;16.886;2022-11-24T15:20:28;59.05;;;38.38;;
6955;SDS011;50345;51.136;16.886;2022-11-24T15:25:41;56.22;;;38.00;;
6955;SDS011;50345;51.136;16.886;2022-11-24T15:28:07;60.45;;;39.60;;
6955;SDS011;50345;51.136;16.886;2022-11-24T15:30:34;57.35;;;39.08;;
6955;SDS011;50345;51.136;16.886;2022-11-24T15:33:00;61.33;;;40.35;;
6955;SDS011;50345;51.136;16.886;2022-11-24T15:35:30;53.20;;;38.25;;
6955;SDS011;50345;51.136;16.886;2022-11-24T15:37:56;57.42;;;37.95;;
6955;SDS011;50345;51.136;16.886;2022-11-24T15:40:23;57.75;;;36.90;;
6955;SDS011;50345;51.136;16.886;2022-11-24T15:42:50;56.33;;;37.45;;
6955;SDS011;50345;51.136;16.886;2022-11-24T15:45:17;54.55;;;39.63;;
6955;SDS011;50345;51.136;16.886;2022-11-24T15:47:43;50.20;;;37.72;;
6955;SDS011;50345;51.136;16.886;2022-11-24T15:50:09;52.35;;;37.65;;
6955;SDS011;50345;51.136;16.886;2022-11-24T15:52:35;61.33;;;38.90;;
6955;SDS011;50345;51.136;16.886;2022-11-24T15:55:02;54.85;;;37.40;;
6955;SDS011;50345;51.136;16.886;2022-11-24T15:57:28;62.83;;;41.42;;